createdAt,value
2019-04-10T00:00:33.430Z,5.47
2019-04-10T00:03:03.961Z,5.47
2019-04-10T00:05:34.010Z,6.27
2019-04-10T00:08:04.004Z,5.73
2019-04-10T00:10:34.106Z,5.47
2019-04-10T00:13:04.518Z,5.10
2019-04-10T00:15:34.708Z,5.17
2019-04-10T00:18:03.845Z,4.97
2019-04-10T00:20:34.307Z,5.27
2019-04-10T00:23:04.011Z,4.77
2019-04-10T00:25:33.510Z,5.00
2019-04-10T00:28:03.266Z,5.13
2019-04-10T00:30:33.269Z,4.90
2019-04-10T00:33:03.063Z,4.60
2019-04-10T00:35:33.013Z,5.03
2019-04-10T00:38:02.510Z,5.13
2019-04-10T00:40:31.403Z,5.17
2019-04-10T00:43:00.879Z,5.30
2019-04-10T00:45:30.372Z,5.00
2019-04-10T00:47:59.853Z,4.60
2019-04-10T00:50:29.341Z,5.30
2019-04-10T00:52:58.843Z,5.07
2019-04-10T00:55:28.857Z,4.77
2019-04-10T00:57:58.906Z,4.80
2019-04-10T01:00:28.787Z,5.33
2019-04-10T01:02:58.848Z,5.37
2019-04-10T01:05:28.691Z,4.63
2019-04-10T01:07:58.107Z,4.90
2019-04-10T01:10:28.471Z,4.77
2019-04-10T01:12:58.721Z,5.10
2019-04-10T01:15:28.830Z,4.80
2019-04-10T01:17:59.033Z,4.83
2019-04-10T01:20:29.311Z,4.90
2019-04-10T01:22:59.384Z,4.90
2019-04-10T01:25:29.158Z,4.93
2019-04-10T01:28:00.444Z,4.93
2019-04-10T01:30:30.561Z,4.63
2019-04-10T01:33:02.104Z,5.10
2019-04-10T01:35:32.124Z,4.67
2019-04-10T01:38:04.601Z,5.10
2019-04-10T01:40:33.033Z,4.70
2019-04-10T01:43:09.889Z,4.77
2019-04-10T01:45:33.600Z,4.73
2019-04-10T01:48:03.746Z,4.50
2019-04-10T01:50:34.770Z,4.60
2019-04-10T01:53:04.305Z,4.87
2019-04-10T01:55:35.640Z,4.90
2019-04-10T01:58:08.600Z,4.50
2019-04-10T02:00:39.681Z,4.57
2019-04-10T02:03:09.793Z,4.97
2019-04-10T02:05:39.521Z,4.73
2019-04-10T02:08:13.116Z,5.00
2019-04-10T02:10:40.548Z,4.70
2019-04-10T02:13:10.166Z,4.70
2019-04-10T02:15:39.659Z,5.03
2019-04-10T02:18:09.153Z,5.10
2019-04-10T02:20:38.877Z,4.77
2019-04-10T02:23:08.605Z,4.70
2019-04-10T02:25:39.079Z,5.07
2019-04-10T02:28:09.030Z,4.73
2019-04-10T02:30:39.641Z,4.77
2019-04-10T02:33:10.766Z,5.03
2019-04-10T02:35:40.373Z,4.67
2019-04-10T02:38:26.044Z,5.27
2019-04-10T02:40:41.678Z,4.70
2019-04-10T02:43:12.447Z,4.90
2019-04-10T02:45:44.273Z,5.00
2019-04-10T02:48:15.036Z,4.80
2019-04-10T02:50:45.001Z,5.17
2019-04-10T02:53:15.434Z,4.90
2019-04-10T02:55:47.359Z,4.57
2019-04-10T02:58:18.418Z,4.70
2019-04-10T03:00:48.752Z,4.53
2019-04-10T03:03:20.007Z,5.00
2019-04-10T03:05:50.825Z,4.97
2019-04-10T03:08:39.542Z,4.80
2019-04-10T03:10:56.773Z,4.90
2019-04-10T03:13:23.943Z,4.87
2019-04-10T03:15:53.784Z,5.20
2019-04-10T03:18:23.215Z,4.87
2019-04-10T03:20:52.690Z,5.40
2019-04-10T03:23:23.005Z,5.00
2019-04-10T03:25:53.070Z,5.37
2019-04-10T03:28:22.956Z,5.03
2019-04-10T03:30:53.837Z,5.17
2019-04-10T03:33:54.120Z,5.57
2019-04-10T03:36:23.226Z,5.13
2019-04-10T03:38:59.915Z,5.27
2019-04-10T03:41:24.143Z,5.13
2019-04-10T03:43:54.270Z,5.30
2019-04-10T03:46:24.032Z,5.30
2019-04-10T03:48:53.537Z,5.30
2019-04-10T03:51:23.034Z,5.43
2019-04-10T03:53:52.486Z,5.30
2019-04-10T03:56:22.034Z,5.00
2019-04-10T03:58:51.669Z,5.37
2019-04-10T04:01:31.919Z,5.17
2019-04-10T04:04:01.562Z,5.10
2019-04-10T04:06:31.465Z,5.03
2019-04-10T04:09:07.317Z,4.93
2019-04-10T04:11:32.180Z,5.47
2019-04-10T04:14:01.672Z,5.20
2019-04-10T04:16:31.126Z,5.27
2019-04-10T04:19:01.675Z,4.83
2019-04-10T04:21:32.051Z,5.20
2019-04-10T04:24:01.687Z,5.30
2019-04-10T04:26:31.677Z,4.70
2019-04-10T04:29:03.583Z,5.43
2019-04-10T04:31:33.272Z,5.10
2019-04-10T04:34:03.945Z,5.27
2019-04-10T04:36:33.714Z,5.00
2019-04-10T04:39:17.860Z,5.40
2019-04-10T04:41:36.101Z,5.60
2019-04-10T04:44:06.011Z,5.27
2019-04-10T04:46:36.491Z,5.17
2019-04-10T04:49:06.796Z,5.23
2019-04-10T04:51:36.891Z,5.30
2019-04-10T04:54:06.743Z,5.47
2019-04-10T04:56:36.236Z,5.87
2019-04-10T04:59:05.971Z,5.47
2019-04-10T05:01:35.990Z,5.80
2019-04-10T05:04:06.758Z,5.73
2019-04-10T05:06:36.398Z,5.43
2019-04-10T05:09:07.929Z,5.87
2019-04-10T05:11:38.420Z,5.80
2019-04-10T05:14:08.108Z,5.80
2019-04-10T05:16:37.605Z,5.40
2019-04-10T05:19:08.042Z,6.00
2019-04-10T05:21:37.649Z,5.57
2019-04-10T05:24:07.361Z,6.43
2019-04-10T05:26:37.031Z,6.23
2019-04-10T05:29:06.494Z,6.10
2019-04-10T05:31:36.379Z,6.37
2019-04-10T05:34:06.188Z,5.63
2019-04-10T05:36:35.683Z,5.97
2019-04-10T05:39:07.167Z,6.17
2019-04-10T05:41:37.762Z,5.80
2019-04-10T05:44:07.490Z,6.10
2019-04-10T05:46:36.995Z,6.07
2019-04-10T05:49:06.745Z,6.10
2019-04-10T05:51:37.418Z,6.10
2019-04-10T05:54:06.957Z,6.43
2019-04-10T05:56:36.448Z,6.40
2019-04-10T05:59:08.459Z,6.37
2019-04-10T06:01:40.219Z,5.77
2019-04-10T06:04:09.278Z,6.87
2019-04-10T06:06:38.805Z,6.10
2019-04-10T06:09:08.742Z,6.60
2019-04-10T06:11:39.486Z,6.30
2019-04-10T06:14:10.154Z,6.50
2019-04-10T06:16:40.587Z,6.53
2019-04-10T06:19:10.137Z,6.73
2019-04-10T06:21:39.755Z,6.70
2019-04-10T06:24:09.305Z,6.27
2019-04-10T06:26:39.509Z,7.23
2019-04-10T06:29:09.184Z,6.43
2019-04-10T06:31:39.079Z,7.73
2019-04-10T06:34:09.005Z,6.87
2019-04-10T06:36:39.655Z,6.70
2019-04-10T06:39:09.410Z,6.47
2019-04-10T06:41:39.123Z,6.90
2019-04-10T06:44:08.520Z,7.43
2019-04-10T06:46:39.409Z,6.53
2019-04-10T06:49:10.000Z,6.30
2019-04-10T06:51:39.474Z,6.30
2019-04-10T06:54:11.359Z,7.03
2019-04-10T06:56:41.012Z,7.00
2019-04-10T06:59:10.672Z,6.77
2019-04-10T07:01:47.816Z,6.87
2019-04-10T07:04:11.514Z,7.90
2019-04-10T07:06:53.938Z,6.97
2019-04-10T07:09:20.646Z,7.00
2019-04-10T07:11:53.475Z,7.00
2019-04-10T07:14:20.521Z,7.07
2019-04-10T07:16:50.725Z,6.90
2019-04-10T07:19:20.385Z,7.57
2019-04-10T07:21:49.907Z,7.40
2019-04-10T07:24:19.390Z,6.90
2019-04-10T07:26:49.749Z,6.87
2019-04-10T07:29:24.753Z,6.87
2019-04-10T07:31:50.902Z,7.27
2019-04-10T07:34:22.612Z,7.00
2019-04-10T07:36:52.032Z,7.40
2019-04-10T07:39:21.521Z,7.30
2019-04-10T07:41:51.082Z,8.00
2019-04-10T07:44:20.584Z,7.37
2019-04-10T07:46:50.784Z,7.57
2019-04-10T07:49:20.805Z,7.80
2019-04-10T07:51:51.934Z,8.43
2019-04-10T07:54:22.596Z,8.00
2019-04-10T07:56:52.258Z,8.37
2019-04-10T07:59:21.753Z,8.80
2019-04-10T08:01:51.713Z,8.90
2019-04-10T08:04:22.576Z,9.23
2019-04-10T08:06:52.321Z,8.83
2019-04-10T08:09:21.861Z,8.53
2019-04-10T08:11:51.398Z,9.03
2019-04-10T08:14:21.758Z,8.07
2019-04-10T08:16:51.862Z,8.67
2019-04-10T08:19:21.400Z,8.73
2019-04-10T08:21:50.884Z,8.00
2019-04-10T08:24:20.371Z,8.80
2019-04-10T08:26:49.809Z,8.63
2019-04-10T08:29:19.283Z,8.53
2019-04-10T08:31:48.798Z,7.90
2019-04-10T08:34:17.666Z,8.70
2019-04-10T08:36:47.916Z,7.50
2019-04-10T08:39:32.599Z,7.90
2019-04-10T08:41:50.026Z,7.17
2019-04-10T08:44:19.981Z,7.80
2019-04-10T08:46:50.418Z,8.33
2019-04-10T08:49:21.237Z,8.40
2019-04-10T08:51:52.042Z,8.00
2019-04-10T08:54:21.894Z,8.93
2019-04-10T08:56:52.544Z,8.50
2019-04-10T08:59:23.587Z,8.47
2019-04-10T09:01:53.687Z,8.70
2019-04-10T09:04:23.353Z,8.50
2019-04-10T09:06:52.824Z,8.60
2019-04-10T09:09:22.297Z,9.00
2019-04-10T09:11:51.798Z,8.80
2019-04-10T09:14:21.283Z,9.03
2019-04-10T09:16:51.118Z,8.77
2019-04-10T09:19:20.653Z,8.87
2019-04-10T09:21:50.115Z,8.40
2019-04-10T09:24:19.686Z,8.60
2019-04-10T09:26:49.129Z,7.80
2019-04-10T09:29:21.397Z,8.17
2019-04-10T09:31:50.304Z,7.70
2019-04-10T09:34:20.005Z,8.53
2019-04-10T09:36:49.494Z,7.60
2019-04-10T09:39:19.158Z,8.90
2019-04-10T09:41:50.120Z,8.13
2019-04-10T09:44:20.782Z,7.43
2019-04-10T09:46:50.311Z,7.87
2019-04-10T09:49:31.943Z,8.20
2019-04-10T09:51:50.876Z,8.30
2019-04-10T09:54:20.333Z,8.40
2019-04-10T09:56:50.596Z,7.50
2019-04-10T09:59:31.182Z,8.10
2019-04-10T10:01:51.463Z,8.07
2019-04-10T10:04:21.592Z,7.73
2019-04-10T10:06:51.491Z,7.27
2019-04-10T10:09:21.696Z,7.87
2019-04-10T10:11:51.425Z,7.83
2019-04-10T10:14:20.999Z,7.87
2019-04-10T10:16:50.577Z,7.90
2019-04-10T10:19:20.123Z,8.23
2019-04-10T10:21:50.518Z,7.70
2019-04-10T10:24:20.379Z,6.90
2019-04-10T10:26:49.886Z,7.03
2019-04-10T10:29:19.720Z,7.80
2019-04-10T10:31:51.203Z,7.37
2019-04-10T10:34:20.678Z,7.13
2019-04-10T10:36:52.113Z,8.20
2019-04-10T10:39:21.512Z,7.73
2019-04-10T10:41:51.149Z,7.00
2019-04-10T10:44:21.813Z,7.30
2019-04-10T10:46:51.697Z,7.67
2019-04-10T10:49:21.219Z,7.57
2019-04-10T10:51:51.056Z,7.53
2019-04-10T10:54:21.133Z,7.33
2019-04-10T10:56:50.936Z,7.07
2019-04-10T10:59:21.699Z,6.70
2019-04-10T11:01:51.915Z,7.57
2019-04-10T11:04:21.746Z,6.90
2019-04-10T11:06:58.855Z,7.00
2019-04-10T11:09:22.436Z,6.93
2019-04-10T11:11:52.135Z,7.20
2019-04-10T11:14:21.709Z,6.87
2019-04-10T11:16:51.654Z,7.00
2019-04-10T11:19:21.341Z,6.63
2019-04-10T11:21:51.070Z,7.00
2019-04-10T11:24:20.705Z,6.97
2019-04-10T11:26:50.781Z,6.43
2019-04-10T11:29:22.073Z,6.30
2019-04-10T11:31:51.912Z,6.40
2019-04-10T11:34:22.634Z,7.27
2019-04-10T11:37:14.001Z,6.60
2019-04-10T11:39:26.857Z,6.60
2019-04-10T11:41:55.326Z,5.80
2019-04-10T11:44:26.938Z,5.90
2019-04-10T11:46:57.259Z,6.20
2019-04-10T11:49:28.994Z,5.90
2019-04-10T11:51:59.964Z,6.57
2019-04-10T11:54:32.254Z,5.90
2019-04-10T11:57:03.184Z,6.60
2019-04-10T11:59:34.579Z,6.10
2019-04-10T12:02:06.637Z,5.50
2019-04-10T12:04:45.057Z,5.40
2019-04-10T12:07:09.133Z,5.67
2019-04-10T12:12:09.070Z,5.10
2019-04-10T12:14:39.618Z,5.93
2019-04-10T12:17:09.661Z,5.33
2019-04-10T12:19:40.518Z,5.57
2019-04-10T12:22:11.605Z,5.30
2019-04-10T12:24:41.195Z,5.25
2019-04-10T12:27:10.669Z,5.28
2019-04-10T12:29:40.544Z,5.12
2019-04-10T12:32:10.409Z,5.30
2019-04-10T12:34:40.308Z,5.58
2019-04-10T12:37:11.119Z,5.45
2019-04-10T12:39:41.275Z,4.78
2019-04-10T12:42:12.226Z,5.55
2019-04-10T12:44:42.796Z,6.08
2019-04-10T12:47:13.440Z,6.23
2019-04-10T12:49:43.527Z,5.53
2019-04-10T12:52:14.304Z,6.00
2019-04-10T12:54:44.915Z,5.97
2019-04-10T12:57:14.849Z,6.03
2019-04-10T12:59:45.753Z,5.80
2019-04-10T13:02:16.355Z,5.90
2019-04-10T13:04:47.031Z,6.00
2019-04-10T13:07:16.859Z,5.67
2019-04-10T13:09:46.388Z,5.60
2019-04-10T13:12:15.829Z,5.20
2019-04-10T13:14:46.441Z,5.70
2019-04-10T13:17:16.525Z,5.42
2019-04-10T13:19:46.073Z,4.90
2019-04-10T13:22:15.930Z,5.23
2019-04-10T13:24:45.889Z,5.37
2019-04-10T13:27:16.703Z,5.47
2019-04-10T13:29:46.687Z,7.10
2019-04-10T13:32:16.893Z,6.10
2019-04-10T13:34:47.363Z,6.07
2019-04-10T13:37:17.911Z,5.60
2019-04-10T13:39:50.938Z,5.87
2019-04-10T13:42:21.017Z,5.90
2019-04-10T13:44:50.851Z,5.63
2019-04-10T13:47:21.696Z,5.23
2019-04-10T13:49:51.288Z,5.60
2019-04-10T13:52:22.098Z,5.10
2019-04-10T13:54:52.468Z,5.73
2019-04-10T13:57:22.299Z,5.25
2019-04-10T13:59:51.734Z,5.03
2019-04-10T14:02:35.351Z,5.03
2019-04-10T14:05:07.486Z,5.47
2019-04-10T14:07:37.011Z,5.00
2019-04-10T14:10:07.220Z,5.07
2019-04-10T14:12:37.396Z,4.95
2019-04-10T14:15:08.015Z,4.85
2019-04-10T14:17:37.705Z,4.62
2019-04-10T14:20:07.401Z,4.30
2019-04-10T14:22:39.940Z,5.10
2019-04-10T14:25:21.169Z,4.80
2019-04-10T14:27:50.679Z,4.33
2019-04-10T14:30:29.315Z,4.10
2019-04-10T14:32:59.188Z,4.17
2019-04-10T14:35:29.622Z,4.10
2019-04-10T14:37:59.508Z,3.80
2019-04-10T14:40:30.402Z,4.80
2019-04-10T14:43:00.286Z,4.40
2019-04-10T14:45:29.878Z,4.25
2019-04-10T14:48:00.149Z,3.55
2019-04-10T14:50:31.549Z,3.60
2019-04-10T14:53:01.655Z,3.85
2019-04-10T14:55:43.884Z,3.65
2019-04-10T14:58:27.468Z,3.70
2019-04-10T15:01:02.740Z,3.90
2019-04-10T15:03:33.382Z,3.55
2019-04-10T15:06:04.903Z,3.87
2019-04-10T15:08:35.634Z,3.70
2019-04-10T15:11:05.106Z,3.83
2019-04-10T15:13:34.636Z,4.40
2019-04-10T15:16:05.030Z,4.10
2019-04-10T15:18:35.060Z,3.92
2019-04-10T15:21:04.823Z,3.77
2019-04-10T15:23:34.388Z,4.70
2019-04-10T15:26:03.874Z,3.83
2019-04-10T15:28:33.921Z,4.00
2019-04-10T15:31:03.485Z,4.07
2019-04-10T15:33:32.951Z,4.93
2019-04-10T15:36:02.500Z,4.07
2019-04-10T15:38:31.973Z,3.77
2019-04-10T15:41:05.010Z,3.43
2019-04-10T15:43:35.111Z,3.73
2019-04-10T15:46:04.782Z,3.70
2019-04-10T15:48:34.279Z,4.00
2019-04-10T15:51:03.774Z,3.90
2019-04-10T15:53:34.425Z,3.53
2019-04-10T15:56:05.428Z,3.83
2019-04-10T15:58:35.423Z,3.87
2019-04-10T16:01:07.743Z,3.60
2019-04-10T16:03:38.632Z,3.60
2019-04-10T16:06:08.450Z,3.70
2019-04-10T16:08:38.601Z,3.67
2019-04-10T16:11:33.879Z,4.00
2019-04-10T16:14:16.901Z,3.63
2019-04-10T16:16:45.571Z,4.10
2019-04-10T16:19:37.173Z,3.80
2019-04-10T16:22:13.183Z,4.07
2019-04-10T16:24:42.668Z,4.13
2019-04-10T16:27:12.168Z,4.13
2019-04-10T16:29:42.607Z,4.50
2019-04-10T16:32:13.016Z,4.33
2019-04-10T16:34:42.863Z,4.20
2019-04-10T16:37:12.563Z,4.53
2019-04-10T16:39:42.470Z,4.60
2019-04-10T16:42:12.668Z,4.90
2019-04-10T16:44:42.397Z,5.00
2019-04-10T16:47:14.083Z,6.40
2019-04-10T16:49:44.606Z,4.60
2019-04-10T16:52:14.608Z,5.10
2019-04-10T16:54:45.240Z,4.83
2019-04-10T16:57:14.905Z,5.13
2019-04-10T16:59:44.369Z,4.70
2019-04-10T17:02:13.835Z,5.30
2019-04-10T17:04:43.753Z,6.53
2019-04-10T17:07:13.377Z,5.77
2019-04-10T17:09:43.878Z,5.73
2019-04-10T17:12:13.998Z,4.83
2019-04-10T17:14:43.929Z,4.40
2019-04-10T17:17:14.496Z,4.27
2019-04-10T17:19:51.951Z,4.30
2019-04-10T17:22:17.606Z,3.73
2019-04-10T17:24:47.403Z,4.60
2019-04-10T17:27:17.009Z,4.50
2019-04-10T17:29:47.614Z,5.57
2019-04-10T17:32:17.207Z,6.07
2019-04-10T17:34:47.210Z,5.60
2019-04-10T17:37:17.926Z,7.47
2019-04-10T17:39:47.471Z,5.37
2019-04-10T17:42:16.976Z,4.47
2019-04-10T17:44:47.725Z,4.17
2019-04-10T17:47:17.605Z,3.90
2019-04-10T17:49:47.668Z,4.60
2019-04-10T17:52:18.616Z,3.87
2019-04-10T17:54:49.182Z,4.13
2019-04-10T17:57:18.997Z,5.33
2019-04-10T17:59:48.940Z,4.60
2019-04-10T18:02:18.610Z,4.23
2019-04-10T18:04:48.333Z,4.33
2019-04-10T18:07:18.121Z,4.03
2019-04-10T18:09:48.585Z,4.00
2019-04-10T18:12:18.278Z,3.97
2019-04-10T18:14:49.296Z,4.60
2019-04-10T18:17:19.044Z,4.60
2019-04-10T18:19:48.530Z,4.37
2019-04-10T18:22:18.576Z,4.63
2019-04-10T18:24:48.186Z,6.60
2019-04-10T18:27:18.429Z,5.67
2019-04-10T18:29:47.916Z,5.00
2019-04-10T18:32:17.939Z,4.50
2019-04-10T18:34:47.475Z,4.83
2019-04-10T18:37:19.897Z,4.90
2019-04-10T18:39:48.648Z,4.50
2019-04-10T18:42:19.344Z,4.23
2019-04-10T18:44:49.082Z,4.33
2019-04-10T18:47:18.675Z,3.90
2019-04-10T18:49:48.167Z,4.20
2019-04-10T18:52:17.630Z,4.37
2019-04-10T18:54:47.848Z,4.30
2019-04-10T18:57:17.822Z,4.30
2019-04-10T18:59:56.645Z,4.67
2019-04-10T19:02:37.013Z,4.20
2019-04-10T19:05:19.481Z,5.23
2019-04-10T19:07:50.153Z,5.17
2019-04-10T19:10:19.908Z,4.73
2019-04-10T19:12:49.490Z,3.73
2019-04-10T19:15:20.301Z,4.83
2019-04-10T19:17:50.652Z,5.00
2019-04-10T19:20:20.931Z,3.93
2019-04-10T19:22:50.673Z,4.50
2019-04-10T19:25:20.963Z,4.23
2019-04-10T19:27:50.777Z,4.27
2019-04-10T19:30:41.918Z,6.13
2019-04-10T19:33:12.116Z,4.50
2019-04-10T19:35:41.958Z,6.10
2019-04-10T19:38:11.515Z,5.00
2019-04-10T19:40:41.053Z,4.80
2019-04-10T19:43:10.539Z,3.70
2019-04-10T19:45:40.006Z,4.30
2019-04-10T19:48:10.757Z,3.83
2019-04-10T19:50:41.454Z,4.17
2019-04-10T19:53:11.200Z,4.47
2019-04-10T19:55:40.731Z,3.90
2019-04-10T19:58:10.968Z,4.60
2019-04-10T20:00:41.020Z,4.70
2019-04-10T20:03:11.196Z,4.33
2019-04-10T20:05:41.496Z,3.87
2019-04-10T20:08:13.085Z,3.80
2019-04-10T20:10:43.595Z,4.20
2019-04-10T20:13:14.378Z,4.60
2019-04-10T20:15:44.795Z,4.23
2019-04-10T20:18:14.729Z,5.10
2019-04-10T20:20:44.225Z,4.30
2019-04-10T20:23:14.182Z,5.40
2019-04-10T20:25:44.046Z,4.80
2019-04-10T20:28:14.261Z,5.57
2019-04-10T20:30:44.596Z,9.67
2019-04-10T20:33:14.607Z,5.60
2019-04-10T20:35:44.651Z,5.83
2019-04-10T20:38:14.189Z,6.17
2019-04-10T20:40:44.339Z,5.93
2019-04-10T20:43:15.038Z,5.63
2019-04-10T20:45:45.467Z,5.70
2019-04-10T20:48:16.040Z,5.57
2019-04-10T20:50:45.603Z,6.13
2019-04-10T20:53:15.911Z,5.20
2019-04-10T20:55:46.057Z,4.50
2019-04-10T20:58:15.614Z,4.53
2019-04-10T21:00:45.130Z,4.97
2019-04-10T21:03:15.543Z,5.57
2019-04-10T21:05:45.143Z,4.93
2019-04-10T21:08:15.689Z,4.17
2019-04-10T21:10:45.240Z,4.60
2019-04-10T21:13:15.043Z,6.10
2019-04-10T21:15:44.853Z,8.90
2019-04-10T21:18:15.241Z,5.27
2019-04-10T21:20:45.227Z,5.00
2019-04-10T21:23:15.122Z,7.27
2019-04-10T21:25:45.590Z,4.30
2019-04-10T21:28:16.209Z,5.33
2019-04-10T21:31:13.820Z,5.67
2019-04-10T21:34:12.040Z,5.00
2019-04-10T21:36:43.153Z,4.53
2019-04-10T21:39:13.843Z,4.30
2019-04-10T21:41:44.552Z,4.23
2019-04-10T21:44:14.379Z,4.50
2019-04-10T21:46:44.440Z,4.40
2019-04-10T21:49:15.319Z,4.07
2019-04-10T21:51:45.059Z,4.07
2019-04-10T21:54:14.522Z,4.30
2019-04-10T21:56:45.002Z,4.83
2019-04-10T21:59:16.383Z,6.10
2019-04-10T22:01:46.536Z,4.30
2019-04-10T22:04:16.831Z,3.77
2019-04-10T22:07:08.077Z,4.07
2019-04-10T22:09:47.451Z,4.57
2019-04-10T22:12:31.708Z,4.63
2019-04-10T22:15:00.291Z,3.70
2019-04-10T22:17:30.026Z,3.77
2019-04-10T22:19:59.503Z,4.57
2019-04-10T22:22:28.987Z,4.67
2019-04-10T22:24:59.150Z,3.90
2019-04-10T22:27:29.599Z,3.63
2019-04-10T22:30:00.305Z,4.30
2019-04-10T22:32:31.037Z,3.97
2019-04-10T22:35:01.112Z,3.93
2019-04-10T22:37:31.859Z,4.23
2019-04-10T22:40:01.597Z,3.77
2019-04-10T22:42:40.590Z,3.60
2019-04-10T22:45:02.555Z,4.27
2019-04-10T22:47:32.991Z,4.17
2019-04-10T22:50:03.317Z,4.27
2019-04-10T22:52:32.782Z,4.33
2019-04-10T22:55:02.248Z,4.37
2019-04-10T22:57:31.712Z,4.17
2019-04-10T23:00:01.214Z,3.63
2019-04-10T23:02:30.070Z,4.20
2019-04-10T23:04:59.797Z,3.87
2019-04-10T23:07:30.210Z,4.00
2019-04-10T23:10:00.329Z,3.93
2019-04-10T23:12:30.037Z,4.10
2019-04-10T23:14:59.497Z,4.20
2019-04-10T23:17:28.961Z,4.40
2019-04-10T23:19:58.603Z,4.57
2019-04-10T23:22:28.066Z,4.50
2019-04-10T23:24:58.145Z,4.37
2019-04-10T23:27:28.278Z,4.10
2019-04-10T23:29:58.131Z,4.23
2019-04-10T23:32:27.593Z,4.30
2019-04-10T23:34:57.059Z,3.60
2019-04-10T23:37:26.776Z,4.10
2019-04-10T23:39:56.682Z,4.07
2019-04-10T23:42:26.120Z,4.03
2019-04-10T23:44:55.584Z,3.87
2019-04-10T23:47:26.105Z,4.30
2019-04-10T23:49:55.130Z,4.30
2019-04-10T23:52:25.502Z,4.30
2019-04-10T23:54:55.107Z,4.37
2019-04-10T23:57:23.951Z,4.50
2019-04-10T23:59:53.455Z,4.33
